Terminal Aerodrome Forecast
Issued by NWS

Home | Current Version | Previous Version | Text Only | Print | Product List | Glossary On
Versions: 1 2 3 4 5 6 7 8 9 10 11 12 13 14 15 16 17 18 19 20 21 22
000
FTUS45 KABQ 190542 RRB
TAFFMN
TAF
KFMN 190542Z 1906/2006 08005KT P6SM SKC
     FM191000 09006KT P6SM VCFG SCT007
      TEMPO 1911/1913 2SM BR BKN007
     FM191300 10007KT P6SM SCT250
     FM191900 23006KT P6SM VCSH BKN050
     FM200000 VRB04KT P6SM VCSH OVC040=

USA.gov is the U.S. government's official web portal to all federal, state and local government web resources and services.